Terminal Aerodrome Forecast
Issued by NWS Wilmington, OH

Home | Current Version | Previous Version | Text Only | Print | Product List | Glossary On
Versions: 1 2 3 4 5 6 7 8 9 10 11 12 13 14 15 16 17 18 19 20 21 22
000
FTUS41 KILN 201700
TAFCVG
TAF
KCVG 201740Z 2018/2124 17006KT P6SM FEW050 SCT250
     FM210000 15003KT P6SM SCT050 BKN250
     FM211500 22007KT P6SM SCT050 BKN150
     FM212300 23011KT P6SM BKN040 OVC100=

USA.gov is the U.S. government's official web portal to all federal, state and local government web resources and services.